Airfield :
LOGIN :

Register | Disclaimer

   EN    FR    IT 

 










Legend :    VFR   Marginal VFR   IFR   Intensive IFR   Very Intensive IFR
Visi :
Ceiling :
>= 8 km
>= 3000ft
5 to 8 km
1000 to 3000 ft
1500m to 5 km
500 to 1000 ft
800 to 1500m
200 to 500 ft
< 800m
< 200 ft
Symbols :   Thunderstorms  Fog  Heavy snow  Heavy precipitations  Wind > 20 kt
SIGMETs :     Misc.  Thunderstorms  Icing  Turbulence  Mountain Waves  Volcanic Ashes






- Airport Elevation : 170 ft
- IATA code : KRP


EKKA - Karup

CURRENT METAR :
  • 250450Z AUTO 08001KT 9999 NCD 14/11 Q1020 NOSIG

EXPIRED METARs :
  • 250420Z AUTO 09003KT 9999 NCD 13/11 Q1020
  • 250350Z AUTO 08003KT 9999 NCD 11/10 Q1020
  • 250320Z AUTO 08003KT 9999 NCD 11/09 Q1020
  • 250250Z AUTO 08002KT 9999 NCD 09/07 Q1020
  • 250220Z AUTO 08002KT 9999 NCD 10/09 Q1020
  • 250150Z AUTO 09001KT 9999 NCD 10/09 Q1020
  • 250120Z AUTO 06002KT 9999 NCD 10/09 Q1020
  • 250050Z AUTO 00000KT 9999 NCD 10/09 Q1021
  • 250020Z AUTO 00000KT 9999 NCD 10/09 Q1021

TAF TAF EKKA
Valid from the 25 at 03:00 until the 26 at 03:00 UTC


250203Z 2503/2603 VRB02KT 9999 FEW220
TEMPO 2503/2505 6000 BCFG MIFG



MET'MAP, your aeronautical weather chart ! - Copyright ORBIFLY December 2007 - Disclaimer

ORBIFLY MET'MAP TEAM :

Programming & Development : Alexandra Zaïnal
Original concept : Baudouin d'Aumeries
Technical & hardware support : Manuel Goepfert
Assistance : Marc-Olivier Méhu




SOURCES & CREDITS :

   NOAA